sensor_id;sensor_type;location;lat;lon;timestamp;pressure;altitude;pressure_sealevel;temperature
68027;BMP180;54819;48.030;14.710;2023-09-07T00:00:50;98031.20;;;16.00
68027;BMP180;54819;48.030;14.710;2023-09-07T00:03:16;98029.00;;;16.00
68027;BMP180;54819;48.030;14.710;2023-09-07T00:05:44;98030.20;;;16.00
68027;BMP180;54819;48.030;14.710;2023-09-07T00:08:11;98026.80;;;15.92
68027;BMP180;54819;48.030;14.710;2023-09-07T00:10:38;98022.20;;;15.90
68027;BMP180;54819;48.030;14.710;2023-09-07T00:13:05;98022.20;;;15.90
68027;BMP180;54819;48.030;14.710;2023-09-07T00:15:36;98018.00;;;15.80
68027;BMP180;54819;48.030;14.710;2023-09-07T00:18:04;98021.60;;;15.80
68027;BMP180;54819;48.030;14.710;2023-09-07T00:20:31;98016.00;;;15.80
68027;BMP180;54819;48.030;14.710;2023-09-07T00:23:00;98016.80;;;15.72
68027;BMP180;54819;48.030;14.710;2023-09-07T00:25:27;98013.60;;;15.70
68027;BMP180;54819;48.030;14.710;2023-09-07T00:27:54;98011.40;;;15.70
68027;BMP180;54819;48.030;14.710;2023-09-07T00:30:21;98005.80;;;15.70
68027;BMP180;54819;48.030;14.710;2023-09-07T00:32:48;98003.80;;;15.64
68027;BMP180;54819;48.030;14.710;2023-09-07T00:35:15;98011.40;;;15.60
68027;BMP180;54819;48.030;14.710;2023-09-07T00:37:41;98010.20;;;15.60
68027;BMP180;54819;48.030;14.710;2023-09-07T00:40:08;98007.80;;;15.50
68027;BMP180;54819;48.030;14.710;2023-09-07T00:42:36;98010.60;;;15.50
68027;BMP180;54819;48.030;14.710;2023-09-07T00:45:03;98012.60;;;15.50
68027;BMP180;54819;48.030;14.710;2023-09-07T00:47:33;98006.40;;;15.42
68027;BMP180;54819;48.030;14.710;2023-09-07T00:50:02;97997.80;;;15.40
68027;BMP180;54819;48.030;14.710;2023-09-07T00:52:35;98000.80;;;15.40
68027;BMP180;54819;48.030;14.710;2023-09-07T00:55:07;97998.00;;;15.40
68027;BMP180;54819;48.030;14.710;2023-09-07T00:57:34;97997.20;;;15.40
68027;BMP180;54819;48.030;14.710;2023-09-07T01:00:04;97997.00;;;15.40
68027;BMP180;54819;48.030;14.710;2023-09-07T01:02:32;98004.00;;;15.40
68027;BMP180;54819;48.030;14.710;2023-09-07T01:05:01;97997.20;;;15.38
68027;BMP180;54819;48.030;14.710;2023-09-07T01:10:03;97993.80;;;15.30
68027;BMP180;54819;48.030;14.710;2023-09-07T01:12:31;97999.00;;;15.30
68027;BMP180;54819;48.030;14.710;2023-09-07T01:14:58;98001.40;;;15.30
68027;BMP180;54819;48.030;14.710;2023-09-07T01:17:25;98004.20;;;15.30
68027;BMP180;54819;48.030;14.710;2023-09-07T01:19:57;98000.40;;;15.22
68027;BMP180;54819;48.030;14.710;2023-09-07T01:22:26;98000.60;;;15.20
68027;BMP180;54819;48.030;14.710;2023-09-07T01:24:53;97995.60;;;15.20
68027;BMP180;54819;48.030;14.710;2023-09-07T01:27:21;97994.20;;;15.20
68027;BMP180;54819;48.030;14.710;2023-09-07T01:29:48;97991.40;;;15.10
68027;BMP180;54819;48.030;14.710;2023-09-07T01:32:15;97996.80;;;15.10
68027;BMP180;54819;48.030;14.710;2023-09-07T01:34:41;97994.20;;;15.10
68027;BMP180;54819;48.030;14.710;2023-09-07T01:37:08;97994.80;;;15.10
68027;BMP180;54819;48.030;14.710;2023-09-07T01:39:35;97997.00;;;15.00
68027;BMP180;54819;48.030;14.710;2023-09-07T01:42:03;97996.80;;;15.00
68027;BMP180;54819;48.030;14.710;2023-09-07T01:44:29;97994.20;;;14.94
68027;BMP180;54819;48.030;14.710;2023-09-07T01:46:56;97996.60;;;14.90
68027;BMP180;54819;48.030;14.710;2023-09-07T01:49:23;97994.00;;;14.90
68027;BMP180;54819;48.030;14.710;2023-09-07T01:51:53;97993.40;;;14.88
68027;BMP180;54819;48.030;14.710;2023-09-07T01:54:21;97994.20;;;14.80
68027;BMP180;54819;48.030;14.710;2023-09-07T01:56:48;97992.60;;;14.80
68027;BMP180;54819;48.030;14.710;2023-09-07T01:59:14;97994.00;;;14.76
68027;BMP180;54819;48.030;14.710;2023-09-07T02:01:41;97992.00;;;14.70
68027;BMP180;54819;48.030;14.710;2023-09-07T02:04:08;97993.40;;;14.66
68027;BMP180;54819;48.030;14.710;2023-09-07T02:06:35;97988.20;;;14.60
68027;BMP180;54819;48.030;14.710;2023-09-07T02:09:02;97995.80;;;14.60
68027;BMP180;54819;48.030;14.710;2023-09-07T02:11:31;97994.00;;;14.60
68027;BMP180;54819;48.030;14.710;2023-09-07T02:13:57;97997.60;;;14.52
68027;BMP180;54819;48.030;14.710;2023-09-07T02:16:24;97995.00;;;14.50
68027;BMP180;54819;48.030;14.710;2023-09-07T02:19:00;97995.80;;;14.50
68027;BMP180;54819;48.030;14.710;2023-09-07T02:21:27;97997.20;;;14.48
68027;BMP180;54819;48.030;14.710;2023-09-07T02:23:54;97995.40;;;14.40
68027;BMP180;54819;48.030;14.710;2023-09-07T02:26:20;97994.80;;;14.40
68027;BMP180;54819;48.030;14.710;2023-09-07T02:28:47;97997.60;;;14.38
68027;BMP180;54819;48.030;14.710;2023-09-07T02:31:14;97996.20;;;14.30
68027;BMP180;54819;48.030;14.710;2023-09-07T02:33:41;97996.00;;;14.30
68027;BMP180;54819;48.030;14.710;2023-09-07T02:36:08;97994.60;;;14.28
68027;BMP180;54819;48.030;14.710;2023-09-07T02:38:34;97989.80;;;14.20
68027;BMP180;54819;48.030;14.710;2023-09-07T02:41:01;97989.40;;;14.20
68027;BMP180;54819;48.030;14.710;2023-09-07T02:43:29;97986.40;;;14.20
68027;BMP180;54819;48.030;14.710;2023-09-07T02:45:56;97988.20;;;14.14
68027;BMP180;54819;48.030;14.710;2023-09-07T02:48:23;97988.80;;;14.10
68027;BMP180;54819;48.030;14.710;2023-09-07T02:50:50;97989.20;;;14.10
68027;BMP180;54819;48.030;14.710;2023-09-07T02:53:19;97991.60;;;14.10
68027;BMP180;54819;48.030;14.710;2023-09-07T02:55:46;97994.60;;;14.10
68027;BMP180;54819;48.030;14.710;2023-09-07T02:58:13;97990.60;;;14.06
68027;BMP180;54819;48.030;14.710;2023-09-07T03:00:42;97995.20;;;14.10
68027;BMP180;54819;48.030;14.710;2023-09-07T03:03:13;97994.00;;;14.02
68027;BMP180;54819;48.030;14.710;2023-09-07T03:05:42;97995.20;;;14.04
68027;BMP180;54819;48.030;14.710;2023-09-07T03:08:09;97996.80;;;14.00
68027;BMP180;54819;48.030;14.710;2023-09-07T03:10:36;97996.00;;;14.00
68027;BMP180;54819;48.030;14.710;2023-09-07T03:13:07;97996.00;;;14.00
68027;BMP180;54819;48.030;14.710;2023-09-07T03:15:34;97999.40;;;14.00
68027;BMP180;54819;48.030;14.710;2023-09-07T03:18:02;98000.80;;;14.00
68027;BMP180;54819;48.030;14.710;2023-09-07T03:20:29;98001.20;;;14.00
68027;BMP180;54819;48.030;14.710;2023-09-07T03:22:56;97996.60;;;13.98
68027;BMP180;54819;48.030;14.710;2023-09-07T03:25:23;97999.20;;;13.92
68027;BMP180;54819;48.030;14.710;2023-09-07T03:27:49;97999.80;;;13.90
68027;BMP180;54819;48.030;14.710;2023-09-07T03:30:16;97991.00;;;13.90
68027;BMP180;54819;48.030;14.710;2023-09-07T03:32:43;97995.60;;;13.90
68027;BMP180;54819;48.030;14.710;2023-09-07T03:35:10;97995.80;;;13.90
68027;BMP180;54819;48.030;14.710;2023-09-07T03:37:37;97997.60;;;13.82
68027;BMP180;54819;48.030;14.710;2023-09-07T03:40:05;97996.40;;;13.80
68027;BMP180;54819;48.030;14.710;2023-09-07T03:42:32;98000.00;;;13.80
68027;BMP180;54819;48.030;14.710;2023-09-07T03:45:00;98000.00;;;13.80
68027;BMP180;54819;48.030;14.710;2023-09-07T03:47:27;97995.20;;;13.78
68027;BMP180;54819;48.030;14.710;2023-09-07T03:49:57;97997.80;;;13.70
68027;BMP180;54819;48.030;14.710;2023-09-07T03:52:24;98003.80;;;13.70
68027;BMP180;54819;48.030;14.710;2023-09-07T03:54:55;98001.00;;;13.70
68027;BMP180;54819;48.030;14.710;2023-09-07T03:57:25;97998.60;;;13.60
68027;BMP180;54819;48.030;14.710;2023-09-07T03:59:52;98000.80;;;13.60
68027;BMP180;54819;48.030;14.710;2023-09-07T04:02:22;98009.20;;;13.60
68027;BMP180;54819;48.030;14.710;2023-09-07T04:04:50;98006.80;;;13.60
68027;BMP180;54819;48.030;14.710;2023-09-07T04:07:17;98007.80;;;13.54
68027;BMP180;54819;48.030;14.710;2023-09-07T04:09:44;98010.00;;;13.50
68027;BMP180;54819;48.030;14.710;2023-09-07T04:12:11;98006.20;;;13.50
68027;BMP180;54819;48.030;14.710;2023-09-07T04:14:38;98006.60;;;13.50
68027;BMP180;54819;48.030;14.710;2023-09-07T04:17:06;98007.60;;;13.50
68027;BMP180;54819;48.030;14.710;2023-09-07T04:19:32;98011.20;;;13.48
68027;BMP180;54819;48.030;14.710;2023-09-07T04:22:00;98009.60;;;13.40
68027;BMP180;54819;48.030;14.710;2023-09-07T04:24:28;98011.60;;;13.40
68027;BMP180;54819;48.030;14.710;2023-09-07T04:26:59;98012.60;;;13.40
68027;BMP180;54819;48.030;14.710;2023-09-07T04:29:28;98009.40;;;13.40
68027;BMP180;54819;48.030;14.710;2023-09-07T04:31:54;98010.00;;;13.40
68027;BMP180;54819;48.030;14.710;2023-09-07T04:34:22;98010.20;;;13.40
68027;BMP180;54819;48.030;14.710;2023-09-07T04:36:49;98007.20;;;13.40
68027;BMP180;54819;48.030;14.710;2023-09-07T04:39:16;98009.60;;;13.40
68027;BMP180;54819;48.030;14.710;2023-09-07T04:41:43;98008.00;;;13.40
68027;BMP180;54819;48.030;14.710;2023-09-07T04:44:10;98016.20;;;13.58
68027;BMP180;54819;48.030;14.710;2023-09-07T04:46:36;98011.80;;;13.60
68027;BMP180;54819;48.030;14.710;2023-09-07T04:49:03;98014.20;;;13.70
68027;BMP180;54819;48.030;14.710;2023-09-07T04:51:30;98019.40;;;13.70
68027;BMP180;54819;48.030;14.710;2023-09-07T04:53:57;98019.20;;;13.80
68027;BMP180;54819;48.030;14.710;2023-09-07T04:56:23;98013.80;;;13.90
68027;BMP180;54819;48.030;14.710;2023-09-07T04:58:52;98012.20;;;13.90
68027;BMP180;54819;48.030;14.710;2023-09-07T05:01:19;98014.60;;;14.00
68027;BMP180;54819;48.030;14.710;2023-09-07T05:03:46;98018.40;;;14.10
68027;BMP180;54819;48.030;14.710;2023-09-07T05:06:13;98016.80;;;14.10
68027;BMP180;54819;48.030;14.710;2023-09-07T05:08:40;98013.80;;;14.20
68027;BMP180;54819;48.030;14.710;2023-09-07T05:11:07;98031.40;;;14.30
68027;BMP180;54819;48.030;14.710;2023-09-07T05:13:34;98025.80;;;14.34
68027;BMP180;54819;48.030;14.710;2023-09-07T05:16:01;98027.40;;;14.40
68027;BMP180;54819;48.030;14.710;2023-09-07T05:18:28;98024.20;;;14.50
68027;BMP180;54819;48.030;14.710;2023-09-07T05:20:56;98019.00;;;14.50
68027;BMP180;54819;48.030;14.710;2023-09-07T05:23:24;98027.80;;;14.60
68027;BMP180;54819;48.030;14.710;2023-09-07T05:25:54;98021.40;;;14.60
68027;BMP180;54819;48.030;14.710;2023-09-07T05:28:23;98026.20;;;14.70
68027;BMP180;54819;48.030;14.710;2023-09-07T05:30:51;98027.00;;;14.70
68027;BMP180;54819;48.030;14.710;2023-09-07T05:33:20;98030.20;;;14.80
68027;BMP180;54819;48.030;14.710;2023-09-07T05:35:47;98031.80;;;14.80
68027;BMP180;54819;48.030;14.710;2023-09-07T05:38:13;98031.20;;;14.90
68027;BMP180;54819;48.030;14.710;2023-09-07T05:40:43;98032.80;;;14.90
68027;BMP180;54819;48.030;14.710;2023-09-07T05:43:11;98028.80;;;15.00
68027;BMP180;54819;48.030;14.710;2023-09-07T05:45:40;98033.20;;;15.04
68027;BMP180;54819;48.030;14.710;2023-09-07T05:48:08;98035.40;;;15.10
68027;BMP180;54819;48.030;14.710;2023-09-07T05:50:37;98035.60;;;15.20
68027;BMP180;54819;48.030;14.710;2023-09-07T05:53:04;98033.00;;;15.20
68027;BMP180;54819;48.030;14.710;2023-09-07T05:55:32;98037.40;;;15.30
68027;BMP180;54819;48.030;14.710;2023-09-07T05:57:59;98031.20;;;15.40
68027;BMP180;54819;48.030;14.710;2023-09-07T06:00:31;98029.80;;;15.42
68027;BMP180;54819;48.030;14.710;2023-09-07T06:02:58;98029.80;;;15.50
68027;BMP180;54819;48.030;14.710;2023-09-07T06:05:25;98035.80;;;15.60
68027;BMP180;54819;48.030;14.710;2023-09-07T06:07:52;98038.00;;;15.70
68027;BMP180;54819;48.030;14.710;2023-09-07T06:10:18;98036.40;;;15.80
68027;BMP180;54819;48.030;14.710;2023-09-07T06:12:48;98035.40;;;15.90
68027;BMP180;54819;48.030;14.710;2023-09-07T06:15:15;98032.80;;;16.00
68027;BMP180;54819;48.030;14.710;2023-09-07T06:17:43;98033.40;;;16.12
68027;BMP180;54819;48.030;14.710;2023-09-07T06:20:10;98039.60;;;16.30
68027;BMP180;54819;48.030;14.710;2023-09-07T06:22:37;98039.00;;;16.40
68027;BMP180;54819;48.030;14.710;2023-09-07T06:25:04;98038.00;;;16.50
68027;BMP180;54819;48.030;14.710;2023-09-07T06:27:31;98044.20;;;16.60
68027;BMP180;54819;48.030;14.710;2023-09-07T06:29:58;98045.20;;;16.70
68027;BMP180;54819;48.030;14.710;2023-09-07T06:32:25;98041.00;;;16.80
68027;BMP180;54819;48.030;14.710;2023-09-07T06:34:52;98038.20;;;16.90
68027;BMP180;54819;48.030;14.710;2023-09-07T06:37:18;98043.20;;;17.00
68027;BMP180;54819;48.030;14.710;2023-09-07T06:39:45;98045.40;;;17.10
68027;BMP180;54819;48.030;14.710;2023-09-07T06:42:12;98052.60;;;17.20
68027;BMP180;54819;48.030;14.710;2023-09-07T06:44:48;98048.40;;;17.30
68027;BMP180;54819;48.030;14.710;2023-09-07T06:47:15;98048.80;;;17.40
68027;BMP180;54819;48.030;14.710;2023-09-07T06:49:42;98050.60;;;17.48
68027;BMP180;54819;48.030;14.710;2023-09-07T06:52:09;98056.40;;;17.50
68027;BMP180;54819;48.030;14.710;2023-09-07T06:54:37;98066.60;;;17.60
68027;BMP180;54819;48.030;14.710;2023-09-07T06:57:09;98065.80;;;17.70
68027;BMP180;54819;48.030;14.710;2023-09-07T06:59:36;98068.60;;;17.80
68027;BMP180;54819;48.030;14.710;2023-09-07T07:02:03;98070.80;;;17.90
68027;BMP180;54819;48.030;14.710;2023-09-07T07:04:32;98073.20;;;17.94
68027;BMP180;54819;48.030;14.710;2023-09-07T07:07:00;98067.80;;;18.00
68027;BMP180;54819;48.030;14.710;2023-09-07T07:09:28;98068.40;;;18.10
68027;BMP180;54819;48.030;14.710;2023-09-07T07:11:59;98075.20;;;18.20
68027;BMP180;54819;48.030;14.710;2023-09-07T07:14:25;98071.40;;;18.30
68027;BMP180;54819;48.030;14.710;2023-09-07T07:16:52;98071.40;;;18.36
68027;BMP180;54819;48.030;14.710;2023-09-07T07:19:19;98070.00;;;18.40
68027;BMP180;54819;48.030;14.710;2023-09-07T07:21:46;98072.40;;;18.50
68027;BMP180;54819;48.030;14.710;2023-09-07T07:24:13;98068.20;;;18.50
68027;BMP180;54819;48.030;14.710;2023-09-07T07:26:40;98066.40;;;18.60
68027;BMP180;54819;48.030;14.710;2023-09-07T07:29:07;98070.60;;;18.70
68027;BMP180;54819;48.030;14.710;2023-09-07T07:31:34;98072.00;;;18.78
68027;BMP180;54819;48.030;14.710;2023-09-07T07:34:01;98073.60;;;18.88
68027;BMP180;54819;48.030;14.710;2023-09-07T07:36:28;98070.40;;;18.90
68027;BMP180;54819;48.030;14.710;2023-09-07T07:38:59;98069.60;;;18.96
68027;BMP180;54819;48.030;14.710;2023-09-07T07:41:26;98066.80;;;19.02
68027;BMP180;54819;48.030;14.710;2023-09-07T07:43:53;98063.20;;;19.16
68027;BMP180;54819;48.030;14.710;2023-09-07T07:46:19;98065.40;;;19.20
68027;BMP180;54819;48.030;14.710;2023-09-07T07:48:46;98067.40;;;19.30
68027;BMP180;54819;48.030;14.710;2023-09-07T07:51:13;98065.80;;;19.40
68027;BMP180;54819;48.030;14.710;2023-09-07T07:53:42;98064.00;;;19.48
68027;BMP180;54819;48.030;14.710;2023-09-07T07:56:17;98062.60;;;19.60
68027;BMP180;54819;48.030;14.710;2023-09-07T07:58:46;98062.00;;;19.58
68027;BMP180;54819;48.030;14.710;2023-09-07T08:01:18;98064.20;;;19.70
68027;BMP180;54819;48.030;14.710;2023-09-07T08:03:47;98064.20;;;19.80
68027;BMP180;54819;48.030;14.710;2023-09-07T08:06:14;98062.00;;;19.90
68027;BMP180;54819;48.030;14.710;2023-09-07T08:08:41;98062.40;;;20.00
68027;BMP180;54819;48.030;14.710;2023-09-07T08:11:08;98058.00;;;20.06
68027;BMP180;54819;48.030;14.710;2023-09-07T08:13:37;98059.40;;;20.20
68027;BMP180;54819;48.030;14.710;2023-09-07T08:16:05;98059.60;;;20.20
68027;BMP180;54819;48.030;14.710;2023-09-07T08:18:33;98065.00;;;20.30
68027;BMP180;54819;48.030;14.710;2023-09-07T08:21:02;98063.00;;;20.38
68027;BMP180;54819;48.030;14.710;2023-09-07T08:23:29;98063.20;;;20.40
68027;BMP180;54819;48.030;14.710;2023-09-07T08:25:56;98061.40;;;20.50
68027;BMP180;54819;48.030;14.710;2023-09-07T08:28:24;98057.40;;;20.60
68027;BMP180;54819;48.030;14.710;2023-09-07T08:30:52;98058.60;;;20.70
68027;BMP180;54819;48.030;14.710;2023-09-07T08:33:25;98060.40;;;20.76
68027;BMP180;54819;48.030;14.710;2023-09-07T08:35:57;98065.20;;;20.90
68027;BMP180;54819;48.030;14.710;2023-09-07T08:38:24;98059.40;;;21.00
68027;BMP180;54819;48.030;14.710;2023-09-07T08:40:55;98056.00;;;21.06
68027;BMP180;54819;48.030;14.710;2023-09-07T08:43:23;98060.80;;;21.10
68027;BMP180;54819;48.030;14.710;2023-09-07T08:46:05;98059.00;;;21.20
68027;BMP180;54819;48.030;14.710;2023-09-07T08:48:36;98054.00;;;21.28
68027;BMP180;54819;48.030;14.710;2023-09-07T08:51:04;98053.00;;;21.40
68027;BMP180;54819;48.030;14.710;2023-09-07T08:53:33;98056.00;;;21.40
68027;BMP180;54819;48.030;14.710;2023-09-07T08:56:01;98056.00;;;21.50
68027;BMP180;54819;48.030;14.710;2023-09-07T08:58:28;98056.00;;;21.60
68027;BMP180;54819;48.030;14.710;2023-09-07T09:00:56;98051.00;;;21.70
68027;BMP180;54819;48.030;14.710;2023-09-07T09:03:35;98056.00;;;21.72
68027;BMP180;54819;48.030;14.710;2023-09-07T09:06:03;98056.80;;;21.88
68027;BMP180;54819;48.030;14.710;2023-09-07T09:08:50;98057.20;;;21.90
68027;BMP180;54819;48.030;14.710;2023-09-07T09:11:20;98053.20;;;22.06
68027;BMP180;54819;48.030;14.710;2023-09-07T09:13:48;98054.20;;;22.20
68027;BMP180;54819;48.030;14.710;2023-09-07T09:16:15;98047.80;;;22.30
68027;BMP180;54819;48.030;14.710;2023-09-07T09:18:58;98051.20;;;22.40
68027;BMP180;54819;48.030;14.710;2023-09-07T09:21:26;98047.00;;;22.40
68027;BMP180;54819;48.030;14.710;2023-09-07T09:23:57;98050.20;;;22.50
68027;BMP180;54819;48.030;14.710;2023-09-07T09:26:24;98047.60;;;22.60
68027;BMP180;54819;48.030;14.710;2023-09-07T09:28:55;98042.80;;;22.70
68027;BMP180;54819;48.030;14.710;2023-09-07T09:31:23;98044.40;;;22.80
68027;BMP180;54819;48.030;14.710;2023-09-07T09:33:51;98046.60;;;22.90
68027;BMP180;54819;48.030;14.710;2023-09-07T09:36:20;98046.20;;;23.00
68027;BMP180;54819;48.030;14.710;2023-09-07T09:38:51;98042.40;;;23.10
68027;BMP180;54819;48.030;14.710;2023-09-07T09:41:20;98036.20;;;23.20
68027;BMP180;54819;48.030;14.710;2023-09-07T09:43:50;98035.00;;;23.20
68027;BMP180;54819;48.030;14.710;2023-09-07T09:46:18;98034.80;;;23.30
68027;BMP180;54819;48.030;14.710;2023-09-07T09:48:45;98034.60;;;23.40
68027;BMP180;54819;48.030;14.710;2023-09-07T09:51:14;98034.00;;;23.50
68027;BMP180;54819;48.030;14.710;2023-09-07T09:53:42;98024.00;;;23.60
68027;BMP180;54819;48.030;14.710;2023-09-07T09:56:09;98026.60;;;23.70
68027;BMP180;54819;48.030;14.710;2023-09-07T09:58:37;98031.60;;;23.80
68027;BMP180;54819;48.030;14.710;2023-09-07T10:01:04;98020.80;;;23.90
68027;BMP180;54819;48.030;14.710;2023-09-07T10:03:43;98031.40;;;24.00
68027;BMP180;54819;48.030;14.710;2023-09-07T10:06:23;98022.60;;;24.10
68027;BMP180;54819;48.030;14.710;2023-09-07T10:08:59;98022.80;;;24.20
68027;BMP180;54819;48.030;14.710;2023-09-07T10:11:31;98018.00;;;24.30
68027;BMP180;54819;48.030;14.710;2023-09-07T10:14:02;98015.80;;;24.40
68027;BMP180;54819;48.030;14.710;2023-09-07T10:16:52;98011.40;;;24.40
68027;BMP180;54819;48.030;14.710;2023-09-07T10:19:23;98016.20;;;24.50
68027;BMP180;54819;48.030;14.710;2023-09-07T10:21:52;98011.20;;;24.56
68027;BMP180;54819;48.030;14.710;2023-09-07T10:24:28;98008.00;;;24.60
68027;BMP180;54819;48.030;14.710;2023-09-07T10:27:02;98009.40;;;24.70
68027;BMP180;54819;48.030;14.710;2023-09-07T10:30:01;98010.60;;;24.76
68027;BMP180;54819;48.030;14.710;2023-09-07T10:32:37;98001.20;;;24.80
68027;BMP180;54819;48.030;14.710;2023-09-07T10:35:12;97999.40;;;24.90
68027;BMP180;54819;48.030;14.710;2023-09-07T10:37:39;98001.80;;;25.00
68027;BMP180;54819;48.030;14.710;2023-09-07T10:40:07;97999.00;;;25.00
68027;BMP180;54819;48.030;14.710;2023-09-07T10:42:38;97998.80;;;25.10
68027;BMP180;54819;48.030;14.710;2023-09-07T10:45:12;97999.40;;;25.10
68027;BMP180;54819;48.030;14.710;2023-09-07T10:47:41;97997.40;;;25.20
68027;BMP180;54819;48.030;14.710;2023-09-07T10:50:12;97993.60;;;25.30
68027;BMP180;54819;48.030;14.710;2023-09-07T10:52:42;97990.60;;;25.38
68027;BMP180;54819;48.030;14.710;2023-09-07T10:55:11;97990.40;;;25.40
68027;BMP180;54819;48.030;14.710;2023-09-07T10:57:47;97988.00;;;25.50
68027;BMP180;54819;48.030;14.710;2023-09-07T11:00:15;97988.80;;;25.50
68027;BMP180;54819;48.030;14.710;2023-09-07T11:02:42;97989.60;;;25.60
68027;BMP180;54819;48.030;14.710;2023-09-07T11:05:09;97989.80;;;25.60
68027;BMP180;54819;48.030;14.710;2023-09-07T11:07:37;97992.20;;;25.70
68027;BMP180;54819;48.030;14.710;2023-09-07T11:10:06;97993.40;;;25.70
68027;BMP180;54819;48.030;14.710;2023-09-07T11:12:38;97992.40;;;25.80
68027;BMP180;54819;48.030;14.710;2023-09-07T11:15:08;97989.80;;;25.90
68027;BMP180;54819;48.030;14.710;2023-09-07T11:17:39;97985.60;;;25.96
68027;BMP180;54819;48.030;14.710;2023-09-07T11:20:07;97985.00;;;26.00
68027;BMP180;54819;48.030;14.710;2023-09-07T11:22:34;97986.80;;;26.10
68027;BMP180;54819;48.030;14.710;2023-09-07T11:25:20;97993.20;;;26.20
68027;BMP180;54819;48.030;14.710;2023-09-07T11:27:47;97985.00;;;26.30
68027;BMP180;54819;48.030;14.710;2023-09-07T11:30:14;97989.20;;;26.30
68027;BMP180;54819;48.030;14.710;2023-09-07T11:32:41;97989.20;;;26.28
68027;BMP180;54819;48.030;14.710;2023-09-07T11:35:09;97989.00;;;26.36
68027;BMP180;54819;48.030;14.710;2023-09-07T11:37:36;97988.40;;;26.40
68027;BMP180;54819;48.030;14.710;2023-09-07T11:40:04;97988.00;;;26.46
68027;BMP180;54819;48.030;14.710;2023-09-07T11:42:41;97987.40;;;26.50
68027;BMP180;54819;48.030;14.710;2023-09-07T11:45:08;97977.40;;;26.50
68027;BMP180;54819;48.030;14.710;2023-09-07T11:47:35;97979.60;;;26.60
68027;BMP180;54819;48.030;14.710;2023-09-07T11:50:03;97978.80;;;26.60
68027;BMP180;54819;48.030;14.710;2023-09-07T11:52:30;97979.40;;;26.70
68027;BMP180;54819;48.030;14.710;2023-09-07T11:54:58;97975.60;;;26.80
68027;BMP180;54819;48.030;14.710;2023-09-07T11:57:24;97975.40;;;26.82
68027;BMP180;54819;48.030;14.710;2023-09-07T11:59:51;97978.60;;;26.90
68027;BMP180;54819;48.030;14.710;2023-09-07T12:02:25;97973.00;;;26.94
68027;BMP180;54819;48.030;14.710;2023-09-07T12:04:54;97972.00;;;27.00
68027;BMP180;54819;48.030;14.710;2023-09-07T12:07:21;97969.60;;;27.00
68027;BMP180;54819;48.030;14.710;2023-09-07T12:09:48;97966.60;;;27.00
68027;BMP180;54819;48.030;14.710;2023-09-07T12:12:15;97969.80;;;27.10
68027;BMP180;54819;48.030;14.710;2023-09-07T12:14:41;97968.60;;;27.20
68027;BMP180;54819;48.030;14.710;2023-09-07T12:17:08;97970.20;;;27.20
68027;BMP180;54819;48.030;14.710;2023-09-07T12:19:35;97970.00;;;27.30
68027;BMP180;54819;48.030;14.710;2023-09-07T12:22:02;97969.00;;;27.36
68027;BMP180;54819;48.030;14.710;2023-09-07T12:24:30;97966.00;;;27.40
68027;BMP180;54819;48.030;14.710;2023-09-07T12:26:56;97961.60;;;27.40
68027;BMP180;54819;48.030;14.710;2023-09-07T12:29:23;97964.40;;;27.48
68027;BMP180;54819;48.030;14.710;2023-09-07T12:31:50;97957.20;;;27.50
68027;BMP180;54819;48.030;14.710;2023-09-07T12:34:16;97956.00;;;27.50
68027;BMP180;54819;48.030;14.710;2023-09-07T12:36:43;97952.60;;;27.50
68027;BMP180;54819;48.030;14.710;2023-09-07T12:39:10;97952.00;;;27.50
68027;BMP180;54819;48.030;14.710;2023-09-07T12:41:39;97952.60;;;27.54
68027;BMP180;54819;48.030;14.710;2023-09-07T12:44:06;97950.60;;;27.60
68027;BMP180;54819;48.030;14.710;2023-09-07T12:46:33;97945.60;;;27.62
68027;BMP180;54819;48.030;14.710;2023-09-07T12:48:59;97946.80;;;27.70
68027;BMP180;54819;48.030;14.710;2023-09-07T12:51:26;97946.80;;;27.70
68027;BMP180;54819;48.030;14.710;2023-09-07T12:53:53;97947.20;;;27.70
68027;BMP180;54819;48.030;14.710;2023-09-07T12:56:19;97944.60;;;27.78
68027;BMP180;54819;48.030;14.710;2023-09-07T12:58:46;97937.00;;;27.80
68027;BMP180;54819;48.030;14.710;2023-09-07T13:01:13;97944.40;;;27.80
68027;BMP180;54819;48.030;14.710;2023-09-07T13:03:42;97939.80;;;27.82
68027;BMP180;54819;48.030;14.710;2023-09-07T13:06:09;97931.80;;;27.88
68027;BMP180;54819;48.030;14.710;2023-09-07T13:08:36;97937.40;;;27.90
68027;BMP180;54819;48.030;14.710;2023-09-07T13:11:03;97937.40;;;27.90
68027;BMP180;54819;48.030;14.710;2023-09-07T13:13:30;97929.60;;;28.00
68027;BMP180;54819;48.030;14.710;2023-09-07T13:15:58;97932.80;;;28.00
68027;BMP180;54819;48.030;14.710;2023-09-07T13:18:25;97931.40;;;28.00
68027;BMP180;54819;48.030;14.710;2023-09-07T13:20:52;97931.60;;;28.04
68027;BMP180;54819;48.030;14.710;2023-09-07T13:23:28;97935.00;;;28.08
68027;BMP180;54819;48.030;14.710;2023-09-07T13:25:56;97933.40;;;28.08
68027;BMP180;54819;48.030;14.710;2023-09-07T13:28:23;97928.20;;;28.10
68027;BMP180;54819;48.030;14.710;2023-09-07T13:30:50;97923.00;;;28.10
68027;BMP180;54819;48.030;14.710;2023-09-07T13:33:17;97928.20;;;28.10
68027;BMP180;54819;48.030;14.710;2023-09-07T13:35:44;97920.80;;;28.10
68027;BMP180;54819;48.030;14.710;2023-09-07T13:38:12;97918.80;;;28.10
68027;BMP180;54819;48.030;14.710;2023-09-07T13:40:39;97923.00;;;28.10
68027;BMP180;54819;48.030;14.710;2023-09-07T13:43:06;97917.80;;;28.10
68027;BMP180;54819;48.030;14.710;2023-09-07T13:45:32;97920.20;;;28.10
68027;BMP180;54819;48.030;14.710;2023-09-07T13:47:59;97917.80;;;28.10
68027;BMP180;54819;48.030;14.710;2023-09-07T13:50:26;97914.60;;;28.10
68027;BMP180;54819;48.030;14.710;2023-09-07T13:52:55;97913.40;;;28.10
68027;BMP180;54819;48.030;14.710;2023-09-07T13:55:22;97917.20;;;28.10
68027;BMP180;54819;48.030;14.710;2023-09-07T13:57:51;97911.00;;;28.10
68027;BMP180;54819;48.030;14.710;2023-09-07T14:00:18;97917.60;;;28.10
68027;BMP180;54819;48.030;14.710;2023-09-07T14:02:44;97914.60;;;28.10
68027;BMP180;54819;48.030;14.710;2023-09-07T14:05:11;97912.00;;;28.10